YVR weather

Vancouver International Airport
Vancouver, British Columbia, Canada

Public forecast

Using degrees Celsius for public forecast. Weather courtesy of forecast.io.

Current aviation weather report (METAR) for Vancouver International Airport

Retrieved 2019/10/23 01:00 UTC (54 minutes ago):

CYVR 230100Z 27012KT 20SM FEW050 FEW190 BKN250 11/08 A3038 RMK SC1AS1CS5 SC TR CONTRAILS SLP290

Aviation forecast (TAF) for Vancouver International Airport

Retrieved 2019-10-23 03:42 UTC (0 seconds ago):

TAF CYVR 230240Z 2303/2406 26015G25KT P6SM FEW030 SCT060 BECMG 2304/2306 29010KT FM230900 08006KT P6SM SCT012 BKN025 TEMPO 2309/2318 SCT008 BKN012 FM232000 29008KT P6SM FEW015 SCT120 BKN200 FM240400 VRB03KT P6SM FEW008 BKN080 OVC200 RMK NXT FCST BY 230600Z